Ararat, North Carolina
Current Conditions -  °F | °C
As of 4:15 AM on Friday 19 Dec 2014 (Local Time) from KMWK Reporting Station
Clear Clear  
Wind Chill:   Ceiling: Unl
Heat Index:   Visibility: 10mi
Dew Point: -5°   Wind: 6mph
Humidity: 47%   Direction: 310°NW
Pressure: 30.1"   Gusts: NA
Location:  36.4°N, 80.56°W
Report Text: KMWK 190915Z AUTO 31005KT 10SM CLR 06/M05 A3010 RMK AO2 T00551050
Loading
Personal Weather Stations






























Interactive Weather Map New forecast layout! Learn more

10-Day Weather Forecast

Advertisements
Track Severe Weather on mobile